sensor_id;sensor_type;location;lat;lon;timestamp;P1;durP1;ratioP1;P2;durP2;ratioP2
29370;SDS011;16357;52.188;7.838;2024-02-23T00:02:05;0.85;;;0.68;;
29370;SDS011;16357;52.188;7.838;2024-02-23T00:04:31;0.70;;;0.60;;
29370;SDS011;16357;52.188;7.838;2024-02-23T00:06:58;2.75;;;0.80;;
29370;SDS011;16357;52.188;7.838;2024-02-23T00:09:25;0.70;;;0.60;;
29370;SDS011;16357;52.188;7.838;2024-02-23T00:11:51;1.23;;;0.55;;
29370;SDS011;16357;52.188;7.838;2024-02-23T00:14:18;0.88;;;0.50;;
29370;SDS011;16357;52.188;7.838;2024-02-23T00:16:47;1.13;;;0.60;;
29370;SDS011;16357;52.188;7.838;2024-02-23T00:19:15;0.50;;;0.43;;
29370;SDS011;16357;52.188;7.838;2024-02-23T00:21:44;0.70;;;0.40;;
29370;SDS011;16357;52.188;7.838;2024-02-23T00:24:13;0.40;;;0.40;;
29370;SDS011;16357;52.188;7.838;2024-02-23T00:26:42;0.35;;;0.35;;
29370;SDS011;16357;52.188;7.838;2024-02-23T00:29:09;0.47;;;0.40;;
29370;SDS011;16357;52.188;7.838;2024-02-23T00:31:39;0.68;;;0.50;;
29370;SDS011;16357;52.188;7.838;2024-02-23T00:34:09;0.32;;;0.30;;
29370;SDS011;16357;52.188;7.838;2024-02-23T00:36:40;1.50;;;0.50;;
29370;SDS011;16357;52.188;7.838;2024-02-23T00:39:07;3.05;;;0.60;;
29370;SDS011;16357;52.188;7.838;2024-02-23T00:41:34;0.50;;;0.50;;
29370;SDS011;16357;52.188;7.838;2024-02-23T00:44:02;1.02;;;0.60;;
29370;SDS011;16357;52.188;7.838;2024-02-23T00:46:29;0.88;;;0.40;;
29370;SDS011;16357;52.188;7.838;2024-02-23T00:48:56;0.40;;;0.40;;
29370;SDS011;16357;52.188;7.838;2024-02-23T00:51:23;0.90;;;0.50;;
29370;SDS011;16357;52.188;7.838;2024-02-23T00:53:49;0.50;;;0.50;;
29370;SDS011;16357;52.188;7.838;2024-02-23T00:56:16;1.05;;;0.50;;
29370;SDS011;16357;52.188;7.838;2024-02-23T00:58:42;0.57;;;0.40;;
29370;SDS011;16357;52.188;7.838;2024-02-23T01:01:09;0.60;;;0.50;;
29370;SDS011;16357;52.188;7.838;2024-02-23T01:03:36;0.77;;;0.60;;
29370;SDS011;16357;52.188;7.838;2024-02-23T01:06:02;0.68;;;0.57;;
29370;SDS011;16357;52.188;7.838;2024-02-23T01:08:29;0.85;;;0.60;;
29370;SDS011;16357;52.188;7.838;2024-02-23T01:10:55;0.65;;;0.60;;
29370;SDS011;16357;52.188;7.838;2024-02-23T01:13:22;0.60;;;0.60;;
29370;SDS011;16357;52.188;7.838;2024-02-23T01:15:48;1.08;;;0.70;;
29370;SDS011;16357;52.188;7.838;2024-02-23T01:18:15;1.10;;;0.60;;
29370;SDS011;16357;52.188;7.838;2024-02-23T01:20:42;1.05;;;0.60;;
29370;SDS011;16357;52.188;7.838;2024-02-23T01:23:08;1.20;;;0.60;;
29370;SDS011;16357;52.188;7.838;2024-02-23T01:25:34;1.25;;;0.50;;
29370;SDS011;16357;52.188;7.838;2024-02-23T01:28:01;0.50;;;0.50;;
29370;SDS011;16357;52.188;7.838;2024-02-23T01:30:28;1.05;;;0.63;;
29370;SDS011;16357;52.188;7.838;2024-02-23T01:32:54;0.60;;;0.60;;
29370;SDS011;16357;52.188;7.838;2024-02-23T01:35:21;1.50;;;0.70;;
29370;SDS011;16357;52.188;7.838;2024-02-23T01:37:48;0.70;;;0.70;;
29370;SDS011;16357;52.188;7.838;2024-02-23T01:40:14;1.00;;;0.70;;
29370;SDS011;16357;52.188;7.838;2024-02-23T01:42:41;0.95;;;0.70;;
29370;SDS011;16357;52.188;7.838;2024-02-23T01:45:07;0.73;;;0.73;;
29370;SDS011;16357;52.188;7.838;2024-02-23T01:47:34;3.63;;;1.00;;
29370;SDS011;16357;52.188;7.838;2024-02-23T01:50:01;2.92;;;1.38;;
29370;SDS011;16357;52.188;7.838;2024-02-23T01:52:28;4.93;;;1.10;;
29370;SDS011;16357;52.188;7.838;2024-02-23T01:54:55;2.33;;;1.13;;
29370;SDS011;16357;52.188;7.838;2024-02-23T01:57:22;3.53;;;0.98;;
29370;SDS011;16357;52.188;7.838;2024-02-23T02:00:10;2.47;;;1.10;;
29370;SDS011;16357;52.188;7.838;2024-02-23T02:02:39;1.10;;;1.00;;
29370;SDS011;16357;52.188;7.838;2024-02-23T02:05:06;1.58;;;0.80;;
29370;SDS011;16357;52.188;7.838;2024-02-23T02:07:34;2.97;;;1.05;;
29370;SDS011;16357;52.188;7.838;2024-02-23T02:10:00;2.60;;;1.25;;
29370;SDS011;16357;52.188;7.838;2024-02-23T02:12:27;2.45;;;1.10;;
29370;SDS011;16357;52.188;7.838;2024-02-23T02:14:54;2.80;;;0.98;;
29370;SDS011;16357;52.188;7.838;2024-02-23T02:17:22;1.95;;;1.20;;
29370;SDS011;16357;52.188;7.838;2024-02-23T02:19:48;1.45;;;1.00;;
29370;SDS011;16357;52.188;7.838;2024-02-23T02:22:15;3.00;;;1.05;;
29370;SDS011;16357;52.188;7.838;2024-02-23T02:24:42;1.75;;;1.20;;
29370;SDS011;16357;52.188;7.838;2024-02-23T02:27:10;2.15;;;1.35;;
29370;SDS011;16357;52.188;7.838;2024-02-23T02:29:36;3.72;;;1.63;;
29370;SDS011;16357;52.188;7.838;2024-02-23T02:32:03;4.45;;;1.20;;
29370;SDS011;16357;52.188;7.838;2024-02-23T02:34:30;2.58;;;1.50;;
29370;SDS011;16357;52.188;7.838;2024-02-23T02:36:57;2.33;;;1.55;;
29370;SDS011;16357;52.188;7.838;2024-02-23T02:39:23;2.90;;;1.75;;
29370;SDS011;16357;52.188;7.838;2024-02-23T02:41:50;2.42;;;1.58;;
29370;SDS011;16357;52.188;7.838;2024-02-23T02:44:16;5.20;;;1.60;;
29370;SDS011;16357;52.188;7.838;2024-02-23T02:46:43;4.38;;;1.98;;
29370;SDS011;16357;52.188;7.838;2024-02-23T02:49:09;2.80;;;1.98;;
29370;SDS011;16357;52.188;7.838;2024-02-23T02:51:36;4.75;;;1.70;;
29370;SDS011;16357;52.188;7.838;2024-02-23T02:54:02;2.15;;;1.83;;
29370;SDS011;16357;52.188;7.838;2024-02-23T02:56:29;4.28;;;2.28;;
29370;SDS011;16357;52.188;7.838;2024-02-23T02:58:55;5.90;;;2.42;;
29370;SDS011;16357;52.188;7.838;2024-02-23T03:01:22;6.03;;;2.10;;
29370;SDS011;16357;52.188;7.838;2024-02-23T03:03:49;3.28;;;2.20;;
29370;SDS011;16357;52.188;7.838;2024-02-23T03:06:15;4.82;;;1.90;;
29370;SDS011;16357;52.188;7.838;2024-02-23T03:08:42;3.55;;;2.08;;
29370;SDS011;16357;52.188;7.838;2024-02-23T03:11:08;3.95;;;2.00;;
29370;SDS011;16357;52.188;7.838;2024-02-23T03:13:35;6.28;;;2.00;;
29370;SDS011;16357;52.188;7.838;2024-02-23T03:16:02;6.78;;;2.13;;
29370;SDS011;16357;52.188;7.838;2024-02-23T03:18:28;4.35;;;2.00;;
29370;SDS011;16357;52.188;7.838;2024-02-23T03:20:55;5.60;;;1.92;;
29370;SDS011;16357;52.188;7.838;2024-02-23T03:23:21;4.43;;;1.80;;
29370;SDS011;16357;52.188;7.838;2024-02-23T03:25:48;3.38;;;1.60;;
29370;SDS011;16357;52.188;7.838;2024-02-23T03:28:14;3.70;;;1.67;;
29370;SDS011;16357;52.188;7.838;2024-02-23T03:30:41;6.25;;;1.92;;
29370;SDS011;16357;52.188;7.838;2024-02-23T03:33:07;5.53;;;1.73;;
29370;SDS011;16357;52.188;7.838;2024-02-23T03:35:34;5.53;;;1.67;;
29370;SDS011;16357;52.188;7.838;2024-02-23T03:38:01;3.92;;;1.50;;
29370;SDS011;16357;52.188;7.838;2024-02-23T03:40:28;3.17;;;1.88;;
29370;SDS011;16357;52.188;7.838;2024-02-23T03:42:55;6.72;;;1.60;;
29370;SDS011;16357;52.188;7.838;2024-02-23T03:45:21;6.68;;;1.60;;
29370;SDS011;16357;52.188;7.838;2024-02-23T03:47:47;4.18;;;1.50;;
29370;SDS011;16357;52.188;7.838;2024-02-23T03:50:14;3.80;;;1.65;;
29370;SDS011;16357;52.188;7.838;2024-02-23T03:52:40;5.35;;;1.50;;
29370;SDS011;16357;52.188;7.838;2024-02-23T03:55:07;2.50;;;1.20;;
29370;SDS011;16357;52.188;7.838;2024-02-23T03:57:34;5.45;;;1.40;;
29370;SDS011;16357;52.188;7.838;2024-02-23T04:00:00;3.60;;;1.50;;
29370;SDS011;16357;52.188;7.838;2024-02-23T04:02:27;4.18;;;1.55;;
29370;SDS011;16357;52.188;7.838;2024-02-23T04:04:54;4.60;;;1.63;;
29370;SDS011;16357;52.188;7.838;2024-02-23T04:07:20;4.20;;;1.30;;
29370;SDS011;16357;52.188;7.838;2024-02-23T04:09:47;2.42;;;1.25;;
29370;SDS011;16357;52.188;7.838;2024-02-23T04:12:19;3.60;;;1.42;;
29370;SDS011;16357;52.188;7.838;2024-02-23T04:14:45;3.88;;;1.23;;
29370;SDS011;16357;52.188;7.838;2024-02-23T04:17:12;4.57;;;1.40;;
29370;SDS011;16357;52.188;7.838;2024-02-23T04:19:42;4.07;;;1.50;;
29370;SDS011;16357;52.188;7.838;2024-02-23T04:22:09;9.88;;;1.90;;
29370;SDS011;16357;52.188;7.838;2024-02-23T04:24:37;4.15;;;1.50;;
29370;SDS011;16357;52.188;7.838;2024-02-23T04:27:07;6.00;;;1.50;;
29370;SDS011;16357;52.188;7.838;2024-02-23T04:29:34;5.22;;;1.27;;
29370;SDS011;16357;52.188;7.838;2024-02-23T04:32:01;5.70;;;1.38;;
29370;SDS011;16357;52.188;7.838;2024-02-23T04:34:28;8.02;;;1.45;;
29370;SDS011;16357;52.188;7.838;2024-02-23T04:36:55;5.13;;;1.65;;
29370;SDS011;16357;52.188;7.838;2024-02-23T04:39:21;6.88;;;1.35;;
29370;SDS011;16357;52.188;7.838;2024-02-23T04:41:48;3.88;;;1.30;;
29370;SDS011;16357;52.188;7.838;2024-02-23T04:44:15;5.22;;;1.60;;
29370;SDS011;16357;52.188;7.838;2024-02-23T04:46:41;5.55;;;1.70;;
29370;SDS011;16357;52.188;7.838;2024-02-23T04:49:08;3.53;;;1.38;;
29370;SDS011;16357;52.188;7.838;2024-02-23T04:51:34;6.18;;;1.58;;
29370;SDS011;16357;52.188;7.838;2024-02-23T04:54:01;9.65;;;1.80;;
29370;SDS011;16357;52.188;7.838;2024-02-23T04:56:27;3.33;;;1.52;;
29370;SDS011;16357;52.188;7.838;2024-02-23T04:58:54;4.68;;;2.13;;
29370;SDS011;16357;52.188;7.838;2024-02-23T05:01:20;5.72;;;1.40;;
29370;SDS011;16357;52.188;7.838;2024-02-23T05:03:47;4.80;;;1.63;;
29370;SDS011;16357;52.188;7.838;2024-02-23T05:06:13;6.75;;;1.70;;
29370;SDS011;16357;52.188;7.838;2024-02-23T05:08:40;5.13;;;1.58;;
29370;SDS011;16357;52.188;7.838;2024-02-23T05:11:07;5.70;;;1.38;;
29370;SDS011;16357;52.188;7.838;2024-02-23T05:13:34;11.18;;;2.08;;
29370;SDS011;16357;52.188;7.838;2024-02-23T05:16:00;6.85;;;1.80;;
29370;SDS011;16357;52.188;7.838;2024-02-23T05:18:26;8.75;;;1.50;;
29370;SDS011;16357;52.188;7.838;2024-02-23T05:20:53;5.10;;;1.50;;
29370;SDS011;16357;52.188;7.838;2024-02-23T05:23:20;4.88;;;1.60;;
29370;SDS011;16357;52.188;7.838;2024-02-23T05:25:46;4.55;;;1.50;;
29370;SDS011;16357;52.188;7.838;2024-02-23T05:28:13;3.10;;;1.60;;
29370;SDS011;16357;52.188;7.838;2024-02-23T05:30:39;5.07;;;2.15;;
29370;SDS011;16357;52.188;7.838;2024-02-23T05:33:07;4.32;;;1.55;;
29370;SDS011;16357;52.188;7.838;2024-02-23T05:35:34;5.18;;;1.90;;
29370;SDS011;16357;52.188;7.838;2024-02-23T05:38:01;6.30;;;1.73;;
29370;SDS011;16357;52.188;7.838;2024-02-23T05:40:27;4.90;;;1.58;;
29370;SDS011;16357;52.188;7.838;2024-02-23T05:42:54;5.60;;;1.90;;
29370;SDS011;16357;52.188;7.838;2024-02-23T05:45:21;6.10;;;1.90;;
29370;SDS011;16357;52.188;7.838;2024-02-23T05:47:49;6.75;;;1.52;;
29370;SDS011;16357;52.188;7.838;2024-02-23T05:50:15;5.70;;;1.67;;
29370;SDS011;16357;52.188;7.838;2024-02-23T05:52:42;7.80;;;1.73;;
29370;SDS011;16357;52.188;7.838;2024-02-23T05:55:09;5.70;;;1.80;;
29370;SDS011;16357;52.188;7.838;2024-02-23T05:57:35;4.35;;;1.60;;
29370;SDS011;16357;52.188;7.838;2024-02-23T06:00:02;5.93;;;1.77;;
29370;SDS011;16357;52.188;7.838;2024-02-23T06:02:30;5.10;;;1.65;;
29370;SDS011;16357;52.188;7.838;2024-02-23T06:04:56;9.77;;;1.90;;
29370;SDS011;16357;52.188;7.838;2024-02-23T06:07:23;5.72;;;1.67;;
29370;SDS011;16357;52.188;7.838;2024-02-23T06:09:55;8.40;;;1.88;;
29370;SDS011;16357;52.188;7.838;2024-02-23T06:12:22;3.40;;;1.63;;
29370;SDS011;16357;52.188;7.838;2024-02-23T06:14:50;4.00;;;1.90;;
29370;SDS011;16357;52.188;7.838;2024-02-23T06:17:17;8.07;;;2.05;;
29370;SDS011;16357;52.188;7.838;2024-02-23T06:19:44;6.05;;;1.80;;
29370;SDS011;16357;52.188;7.838;2024-02-23T06:22:11;4.03;;;1.58;;
29370;SDS011;16357;52.188;7.838;2024-02-23T06:24:38;4.90;;;1.77;;
29370;SDS011;16357;52.188;7.838;2024-02-23T06:27:04;5.50;;;1.58;;
29370;SDS011;16357;52.188;7.838;2024-02-23T06:29:31;5.60;;;1.70;;
29370;SDS011;16357;52.188;7.838;2024-02-23T06:31:58;7.32;;;1.50;;
29370;SDS011;16357;52.188;7.838;2024-02-23T06:34:24;6.82;;;1.63;;
29370;SDS011;16357;52.188;7.838;2024-02-23T06:36:51;5.43;;;1.77;;
29370;SDS011;16357;52.188;7.838;2024-02-23T06:39:18;4.22;;;1.50;;
29370;SDS011;16357;52.188;7.838;2024-02-23T06:41:44;4.15;;;1.50;;
29370;SDS011;16357;52.188;7.838;2024-02-23T06:44:11;11.38;;;2.10;;
29370;SDS011;16357;52.188;7.838;2024-02-23T06:46:37;4.22;;;1.63;;
29370;SDS011;16357;52.188;7.838;2024-02-23T06:49:04;5.28;;;1.70;;
29370;SDS011;16357;52.188;7.838;2024-02-23T06:51:31;5.22;;;1.60;;
29370;SDS011;16357;52.188;7.838;2024-02-23T06:53:58;4.93;;;1.42;;
29370;SDS011;16357;52.188;7.838;2024-02-23T06:56:24;5.00;;;1.52;;
29370;SDS011;16357;52.188;7.838;2024-02-23T06:58:51;8.05;;;1.50;;
29370;SDS011;16357;52.188;7.838;2024-02-23T07:01:19;5.93;;;1.67;;
29370;SDS011;16357;52.188;7.838;2024-02-23T07:03:46;7.85;;;1.90;;
29370;SDS011;16357;52.188;7.838;2024-02-23T07:06:17;7.30;;;2.00;;
29370;SDS011;16357;52.188;7.838;2024-02-23T07:08:44;7.50;;;1.67;;
29370;SDS011;16357;52.188;7.838;2024-02-23T07:11:12;3.58;;;1.50;;
29370;SDS011;16357;52.188;7.838;2024-02-23T07:13:39;5.85;;;1.83;;
29370;SDS011;16357;52.188;7.838;2024-02-23T07:16:09;3.70;;;1.52;;
29370;SDS011;16357;52.188;7.838;2024-02-23T07:18:35;4.60;;;1.55;;
29370;SDS011;16357;52.188;7.838;2024-02-23T07:21:02;7.28;;;1.40;;
29370;SDS011;16357;52.188;7.838;2024-02-23T07:23:28;3.05;;;1.15;;
29370;SDS011;16357;52.188;7.838;2024-02-23T07:25:55;3.88;;;1.35;;
29370;SDS011;16357;52.188;7.838;2024-02-23T07:28:21;16.20;;;2.00;;
29370;SDS011;16357;52.188;7.838;2024-02-23T07:30:49;4.38;;;1.45;;
29370;SDS011;16357;52.188;7.838;2024-02-23T07:33:16;6.25;;;1.33;;
29370;SDS011;16357;52.188;7.838;2024-02-23T07:35:42;5.43;;;1.45;;
29370;SDS011;16357;52.188;7.838;2024-02-23T07:38:09;5.40;;;1.52;;
29370;SDS011;16357;52.188;7.838;2024-02-23T07:40:36;3.03;;;1.20;;
29370;SDS011;16357;52.188;7.838;2024-02-23T07:43:02;7.50;;;1.25;;
29370;SDS011;16357;52.188;7.838;2024-02-23T07:45:29;5.28;;;1.05;;
29370;SDS011;16357;52.188;7.838;2024-02-23T07:47:55;3.83;;;1.40;;
29370;SDS011;16357;52.188;7.838;2024-02-23T07:50:22;4.40;;;1.30;;
29370;SDS011;16357;52.188;7.838;2024-02-23T07:52:48;5.97;;;1.40;;
29370;SDS011;16357;52.188;7.838;2024-02-23T07:55:15;7.63;;;1.58;;
29370;SDS011;16357;52.188;7.838;2024-02-23T07:57:42;3.55;;;1.17;;
29370;SDS011;16357;52.188;7.838;2024-02-23T08:00:09;4.97;;;1.50;;
29370;SDS011;16357;52.188;7.838;2024-02-23T08:02:36;4.22;;;1.98;;
29370;SDS011;16357;52.188;7.838;2024-02-23T08:05:03;2.95;;;1.17;;
29370;SDS011;16357;52.188;7.838;2024-02-23T08:07:30;5.50;;;1.15;;
29370;SDS011;16357;52.188;7.838;2024-02-23T08:09:57;4.30;;;1.42;;
29370;SDS011;16357;52.188;7.838;2024-02-23T08:12:23;3.00;;;1.20;;
29370;SDS011;16357;52.188;7.838;2024-02-23T08:14:50;7.45;;;1.40;;
29370;SDS011;16357;52.188;7.838;2024-02-23T08:17:19;3.47;;;1.15;;
29370;SDS011;16357;52.188;7.838;2024-02-23T08:19:46;7.95;;;1.25;;
29370;SDS011;16357;52.188;7.838;2024-02-23T08:22:14;5.57;;;1.25;;
29370;SDS011;16357;52.188;7.838;2024-02-23T08:24:40;4.72;;;1.50;;
29370;SDS011;16357;52.188;7.838;2024-02-23T08:27:07;4.63;;;1.23;;
29370;SDS011;16357;52.188;7.838;2024-02-23T08:29:33;3.03;;;1.20;;
29370;SDS011;16357;52.188;7.838;2024-02-23T08:32:04;5.60;;;1.60;;
29370;SDS011;16357;52.188;7.838;2024-02-23T08:34:31;8.35;;;1.67;;
29370;SDS011;16357;52.188;7.838;2024-02-23T08:36:58;5.18;;;1.20;;
29370;SDS011;16357;52.188;7.838;2024-02-23T08:39:24;6.40;;;1.55;;
29370;SDS011;16357;52.188;7.838;2024-02-23T08:41:51;2.33;;;1.00;;
29370;SDS011;16357;52.188;7.838;2024-02-23T08:44:18;5.30;;;1.45;;
29370;SDS011;16357;52.188;7.838;2024-02-23T08:46:45;4.18;;;1.25;;
29370;SDS011;16357;52.188;7.838;2024-02-23T08:49:11;8.10;;;1.50;;
29370;SDS011;16357;52.188;7.838;2024-02-23T08:51:38;4.53;;;1.40;;
29370;SDS011;16357;52.188;7.838;2024-02-23T08:54:04;5.80;;;1.48;;
29370;SDS011;16357;52.188;7.838;2024-02-23T08:56:36;3.75;;;1.20;;
29370;SDS011;16357;52.188;7.838;2024-02-23T08:59:04;9.40;;;1.88;;
29370;SDS011;16357;52.188;7.838;2024-02-23T09:01:31;3.22;;;1.00;;
29370;SDS011;16357;52.188;7.838;2024-02-23T09:03:57;4.75;;;1.40;;
29370;SDS011;16357;52.188;7.838;2024-02-23T09:06:24;6.43;;;1.40;;
29370;SDS011;16357;52.188;7.838;2024-02-23T09:08:50;3.90;;;1.20;;
29370;SDS011;16357;52.188;7.838;2024-02-23T09:11:17;4.18;;;1.15;;
29370;SDS011;16357;52.188;7.838;2024-02-23T09:13:43;3.55;;;1.23;;
29370;SDS011;16357;52.188;7.838;2024-02-23T09:16:10;5.18;;;1.30;;
29370;SDS011;16357;52.188;7.838;2024-02-23T09:18:36;3.05;;;1.10;;
29370;SDS011;16357;52.188;7.838;2024-02-23T09:21:03;5.60;;;1.48;;
29370;SDS011;16357;52.188;7.838;2024-02-23T09:23:30;5.22;;;1.35;;
29370;SDS011;16357;52.188;7.838;2024-02-23T09:25:56;5.13;;;1.27;;
29370;SDS011;16357;52.188;7.838;2024-02-23T09:28:23;6.80;;;1.30;;
29370;SDS011;16357;52.188;7.838;2024-02-23T09:30:49;4.15;;;1.27;;
29370;SDS011;16357;52.188;7.838;2024-02-23T09:33:16;2.95;;;1.27;;
29370;SDS011;16357;52.188;7.838;2024-02-23T09:35:42;4.78;;;1.10;;
29370;SDS011;16357;52.188;7.838;2024-02-23T09:38:09;4.28;;;0.95;;
29370;SDS011;16357;52.188;7.838;2024-02-23T09:40:35;4.75;;;1.42;;
29370;SDS011;16357;52.188;7.838;2024-02-23T09:43:02;6.15;;;1.50;;
29370;SDS011;16357;52.188;7.838;2024-02-23T09:45:32;5.28;;;1.20;;
29370;SDS011;16357;52.188;7.838;2024-02-23T09:47:59;5.93;;;1.30;;
29370;SDS011;16357;52.188;7.838;2024-02-23T09:50:29;6.03;;;1.50;;
29370;SDS011;16357;52.188;7.838;2024-02-23T09:52:57;10.07;;;1.65;;
29370;SDS011;16357;52.188;7.838;2024-02-23T09:55:24;5.03;;;1.42;;
29370;SDS011;16357;52.188;7.838;2024-02-23T09:57:52;6.05;;;1.40;;
29370;SDS011;16357;52.188;7.838;2024-02-23T10:00:24;3.72;;;1.30;;
29370;SDS011;16357;52.188;7.838;2024-02-23T10:02:50;4.93;;;1.40;;
29370;SDS011;16357;52.188;7.838;2024-02-23T10:05:17;3.88;;;1.33;;
29370;SDS011;16357;52.188;7.838;2024-02-23T10:07:45;4.40;;;1.27;;
29370;SDS011;16357;52.188;7.838;2024-02-23T10:10:23;4.80;;;1.23;;
29370;SDS011;16357;52.188;7.838;2024-02-23T10:12:52;3.38;;;1.33;;
29370;SDS011;16357;52.188;7.838;2024-02-23T10:15:19;4.15;;;1.50;;
29370;SDS011;16357;52.188;7.838;2024-02-23T10:17:45;3.13;;;1.35;;
29370;SDS011;16357;52.188;7.838;2024-02-23T10:20:12;3.47;;;1.13;;
29370;SDS011;16357;52.188;7.838;2024-02-23T10:22:38;4.65;;;1.50;;
29370;SDS011;16357;52.188;7.838;2024-02-23T10:25:05;5.80;;;2.30;;
29370;SDS011;16357;52.188;7.838;2024-02-23T10:27:32;4.75;;;1.67;;
29370;SDS011;16357;52.188;7.838;2024-02-23T10:29:59;5.28;;;1.92;;
29370;SDS011;16357;52.188;7.838;2024-02-23T10:32:26;5.35;;;1.67;;
29370;SDS011;16357;52.188;7.838;2024-02-23T10:34:55;4.13;;;1.67;;
29370;SDS011;16357;52.188;7.838;2024-02-23T10:37:28;7.53;;;1.90;;
29370;SDS011;16357;52.188;7.838;2024-02-23T10:39:57;4.10;;;1.52;;
29370;SDS011;16357;52.188;7.838;2024-02-23T10:42:24;9.55;;;1.90;;
29370;SDS011;16357;52.188;7.838;2024-02-23T10:44:57;5.03;;;1.80;;
29370;SDS011;16357;52.188;7.838;2024-02-23T10:47:28;5.15;;;1.70;;
29370;SDS011;16357;52.188;7.838;2024-02-23T10:49:58;4.25;;;1.40;;
29370;SDS011;16357;52.188;7.838;2024-02-23T10:52:28;4.75;;;1.50;;
29370;SDS011;16357;52.188;7.838;2024-02-23T10:54:54;2.50;;;1.10;;
29370;SDS011;16357;52.188;7.838;2024-02-23T10:57:21;4.30;;;1.75;;
29370;SDS011;16357;52.188;7.838;2024-02-23T10:59:48;6.03;;;2.00;;
29370;SDS011;16357;52.188;7.838;2024-02-23T11:02:16;5.03;;;2.20;;
29370;SDS011;16357;52.188;7.838;2024-02-23T11:04:47;7.47;;;2.17;;
29370;SDS011;16357;52.188;7.838;2024-02-23T11:07:20;5.90;;;2.40;;
29370;SDS011;16357;52.188;7.838;2024-02-23T11:10:00;5.00;;;1.83;;
29370;SDS011;16357;52.188;7.838;2024-02-23T11:12:29;7.35;;;1.90;;
29370;SDS011;16357;52.188;7.838;2024-02-23T11:14:56;6.35;;;2.08;;
29370;SDS011;16357;52.188;7.838;2024-02-23T11:17:27;5.10;;;1.50;;
29370;SDS011;16357;52.188;7.838;2024-02-23T11:19:56;3.50;;;1.48;;
29370;SDS011;16357;52.188;7.838;2024-02-23T11:22:24;4.38;;;1.40;;
29370;SDS011;16357;52.188;7.838;2024-02-23T11:24:59;4.22;;;1.40;;
29370;SDS011;16357;52.188;7.838;2024-02-23T11:27:38;4.50;;;1.30;;
29370;SDS011;16357;52.188;7.838;2024-02-23T11:30:07;4.20;;;1.50;;
29370;SDS011;16357;52.188;7.838;2024-02-23T11:32:58;4.63;;;1.80;;
29370;SDS011;16357;52.188;7.838;2024-02-23T11:35:26;4.97;;;1.92;;
29370;SDS011;16357;52.188;7.838;2024-02-23T11:40:29;4.95;;;2.10;;
29370;SDS011;16357;52.188;7.838;2024-02-23T11:42:56;5.57;;;2.00;;
29370;SDS011;16357;52.188;7.838;2024-02-23T11:45:24;5.75;;;1.80;;
29370;SDS011;16357;52.188;7.838;2024-02-23T11:47:51;6.00;;;2.08;;
29370;SDS011;16357;52.188;7.838;2024-02-23T11:50:18;4.25;;;1.95;;
29370;SDS011;16357;52.188;7.838;2024-02-23T11:52:47;5.35;;;1.73;;
29370;SDS011;16357;52.188;7.838;2024-02-23T11:55:20;4.05;;;1.67;;
29370;SDS011;16357;52.188;7.838;2024-02-23T11:57:50;4.82;;;2.03;;
29370;SDS011;16357;52.188;7.838;2024-02-23T12:00:30;6.55;;;2.08;;
29370;SDS011;16357;52.188;7.838;2024-02-23T12:02:57;6.47;;;2.17;;
29370;SDS011;16357;52.188;7.838;2024-02-23T12:05:23;4.28;;;2.08;;
29370;SDS011;16357;52.188;7.838;2024-02-23T12:07:50;7.18;;;1.83;;
29370;SDS011;16357;52.188;7.838;2024-02-23T12:10:16;3.35;;;1.63;;
29370;SDS011;16357;52.188;7.838;2024-02-23T12:12:43;3.33;;;1.63;;
29370;SDS011;16357;52.188;7.838;2024-02-23T12:15:10;3.65;;;1.50;;
29370;SDS011;16357;52.188;7.838;2024-02-23T12:17:36;4.50;;;1.55;;
29370;SDS011;16357;52.188;7.838;2024-02-23T12:20:04;3.75;;;1.75;;
29370;SDS011;16357;52.188;7.838;2024-02-23T12:22:34;4.47;;;1.10;;
29370;SDS011;16357;52.188;7.838;2024-02-23T12:25:00;4.28;;;1.10;;
29370;SDS011;16357;52.188;7.838;2024-02-23T12:27:28;4.18;;;1.42;;
29370;SDS011;16357;52.188;7.838;2024-02-23T12:29:55;3.08;;;1.35;;
29370;SDS011;16357;52.188;7.838;2024-02-23T12:32:22;2.72;;;0.93;;
29370;SDS011;16357;52.188;7.838;2024-02-23T12:34:49;6.00;;;1.35;;
29370;SDS011;16357;52.188;7.838;2024-02-23T12:37:16;3.58;;;1.00;;
29370;SDS011;16357;52.188;7.838;2024-02-23T12:39:46;2.58;;;1.10;;
29370;SDS011;16357;52.188;7.838;2024-02-23T12:42:12;1.98;;;0.90;;
29370;SDS011;16357;52.188;7.838;2024-02-23T12:44:39;2.83;;;0.98;;
29370;SDS011;16357;52.188;7.838;2024-02-23T12:47:06;2.75;;;1.10;;
29370;SDS011;16357;52.188;7.838;2024-02-23T12:49:32;3.55;;;1.02;;
29370;SDS011;16357;52.188;7.838;2024-02-23T12:51:59;2.75;;;1.15;;
29370;SDS011;16357;52.188;7.838;2024-02-23T12:54:25;4.00;;;1.23;;
29370;SDS011;16357;52.188;7.838;2024-02-23T12:56:52;2.88;;;0.90;;
29370;SDS011;16357;52.188;7.838;2024-02-23T12:59:18;2.25;;;1.10;;
29370;SDS011;16357;52.188;7.838;2024-02-23T13:01:45;3.38;;;1.08;;
29370;SDS011;16357;52.188;7.838;2024-02-23T13:04:14;3.53;;;1.13;;
29370;SDS011;16357;52.188;7.838;2024-02-23T13:06:41;4.03;;;1.30;;
29370;SDS011;16357;52.188;7.838;2024-02-23T13:09:08;2.95;;;0.93;;
29370;SDS011;16357;52.188;7.838;2024-02-23T13:11:35;4.55;;;1.27;;
29370;SDS011;16357;52.188;7.838;2024-02-23T13:14:04;4.43;;;1.30;;
29370;SDS011;16357;52.188;7.838;2024-02-23T13:16:31;3.80;;;1.27;;
29370;SDS011;16357;52.188;7.838;2024-02-23T13:18:57;3.00;;;1.00;;
29370;SDS011;16357;52.188;7.838;2024-02-23T13:21:24;3.50;;;1.17;;
29370;SDS011;16357;52.188;7.838;2024-02-23T13:23:50;2.25;;;1.00;;
29370;SDS011;16357;52.188;7.838;2024-02-23T13:26:17;2.20;;;0.90;;
29370;SDS011;16357;52.188;7.838;2024-02-23T13:28:43;2.80;;;1.00;;
29370;SDS011;16357;52.188;7.838;2024-02-23T13:31:11;3.33;;;1.00;;
29370;SDS011;16357;52.188;7.838;2024-02-23T13:33:38;2.63;;;1.23;;
29370;SDS011;16357;52.188;7.838;2024-02-23T13:36:05;2.45;;;1.02;;
29370;SDS011;16357;52.188;7.838;2024-02-23T13:38:31;2.47;;;1.20;;
29370;SDS011;16357;52.188;7.838;2024-02-23T13:41:03;3.05;;;1.00;;
29370;SDS011;16357;52.188;7.838;2024-02-23T13:43:31;4.93;;;1.30;;
29370;SDS011;16357;52.188;7.838;2024-02-23T13:45:57;3.80;;;1.17;;
29370;SDS011;16357;52.188;7.838;2024-02-23T13:48:24;2.28;;;0.98;;
29370;SDS011;16357;52.188;7.838;2024-02-23T13:50:50;2.33;;;1.00;;
29370;SDS011;16357;52.188;7.838;2024-02-23T13:53:17;2.67;;;1.23;;
29370;SDS011;16357;52.188;7.838;2024-02-23T13:55:44;4.90;;;1.52;;
29370;SDS011;16357;52.188;7.838;2024-02-23T13:58:10;2.63;;;1.23;;
29370;SDS011;16357;52.188;7.838;2024-02-23T14:00:38;5.07;;;1.27;;
29370;SDS011;16357;52.188;7.838;2024-02-23T14:03:04;2.50;;;1.13;;
29370;SDS011;16357;52.188;7.838;2024-02-23T14:05:31;3.03;;;1.35;;
29370;SDS011;16357;52.188;7.838;2024-02-23T14:07:57;3.03;;;1.30;;
29370;SDS011;16357;52.188;7.838;2024-02-23T14:10:24;4.55;;;1.27;;
29370;SDS011;16357;52.188;7.838;2024-02-23T14:12:50;1.63;;;1.15;;
29370;SDS011;16357;52.188;7.838;2024-02-23T14:15:17;4.65;;;1.30;;
29370;SDS011;16357;52.188;7.838;2024-02-23T14:17:43;3.13;;;1.20;;
29370;SDS011;16357;52.188;7.838;2024-02-23T14:20:10;4.28;;;1.25;;
29370;SDS011;16357;52.188;7.838;2024-02-23T14:22:37;3.17;;;1.00;;
29370;SDS011;16357;52.188;7.838;2024-02-23T14:25:04;3.72;;;1.10;;
29370;SDS011;16357;52.188;7.838;2024-02-23T14:27:30;3.17;;;1.33;;
29370;SDS011;16357;52.188;7.838;2024-02-23T14:29:57;3.33;;;1.30;;
29370;SDS011;16357;52.188;7.838;2024-02-23T14:32:24;3.38;;;1.17;;
29370;SDS011;16357;52.188;7.838;2024-02-23T14:34:50;3.83;;;1.30;;
29370;SDS011;16357;52.188;7.838;2024-02-23T14:37:18;3.10;;;1.20;;
29370;SDS011;16357;52.188;7.838;2024-02-23T14:39:45;5.90;;;1.40;;
29370;SDS011;16357;52.188;7.838;2024-02-23T14:42:13;3.15;;;1.10;;
29370;SDS011;16357;52.188;7.838;2024-02-23T14:44:39;3.38;;;1.35;;
29370;SDS011;16357;52.188;7.838;2024-02-23T14:47:06;3.67;;;1.35;;
29370;SDS011;16357;52.188;7.838;2024-02-23T14:49:32;3.70;;;1.10;;
29370;SDS011;16357;52.188;7.838;2024-02-23T14:51:59;2.28;;;1.10;;